createdAt,value
2019-05-29T00:01:21.700Z,8.90
2019-05-29T00:03:51.012Z,8.90
2019-05-29T00:06:21.305Z,8.80
2019-05-29T00:08:51.476Z,8.80
2019-05-29T00:11:21.631Z,8.80
2019-05-29T00:13:53.392Z,8.80
2019-05-29T00:16:23.689Z,8.80
2019-05-29T00:18:53.852Z,8.70
2019-05-29T00:21:24.003Z,8.70
2019-05-29T00:23:54.160Z,8.60
2019-05-29T00:26:24.478Z,8.60
2019-05-29T00:28:54.883Z,8.60
2019-05-29T00:31:25.103Z,8.60
2019-05-29T00:33:55.249Z,8.50
2019-05-29T00:36:25.474Z,8.50
2019-05-29T00:38:55.611Z,8.50
2019-05-29T00:41:25.787Z,8.50
2019-05-29T00:43:55.922Z,8.50
2019-05-29T00:46:26.073Z,8.40
2019-05-29T00:48:56.219Z,8.40
2019-05-29T00:51:26.363Z,8.30
2019-05-29T00:53:56.759Z,8.30
2019-05-29T00:56:26.919Z,8.30
2019-05-29T00:58:57.077Z,8.30
2019-05-29T01:01:27.235Z,8.20
2019-05-29T01:03:57.383Z,8.20
2019-05-29T01:06:27.523Z,8.20
2019-05-29T01:08:57.828Z,8.20
2019-05-29T01:11:27.965Z,8.20
2019-05-29T01:13:58.111Z,8.10
2019-05-29T01:16:28.267Z,8.10
2019-05-29T01:19:18.074Z,8.10
2019-05-29T01:21:48.401Z,8.00
2019-05-29T01:24:18.555Z,8.00
2019-05-29T01:26:48.711Z,8.00
2019-05-29T01:29:19.465Z,8.00
2019-05-29T01:31:49.675Z,7.90
2019-05-29T01:34:19.890Z,7.90
2019-05-29T01:36:50.065Z,7.90
2019-05-29T01:39:21.303Z,7.90
2019-05-29T01:41:51.656Z,7.80
2019-05-29T01:44:21.822Z,7.80
2019-05-29T01:46:52.023Z,7.80
2019-05-29T01:49:22.177Z,7.80
2019-05-29T01:51:52.351Z,7.80
2019-05-29T01:54:23.714Z,7.70
2019-05-29T01:56:54.025Z,7.70
2019-05-29T01:59:24.208Z,7.70
2019-05-29T02:01:54.420Z,7.70
2019-05-29T02:04:24.579Z,7.70
2019-05-29T02:06:54.735Z,7.60
2019-05-29T02:09:24.868Z,7.60
2019-05-29T02:11:55.024Z,7.60
2019-05-29T02:14:26.681Z,7.50
2019-05-29T02:16:57.020Z,7.50
2019-05-29T02:19:28.209Z,7.40
2019-05-29T02:21:58.417Z,7.40
2019-05-29T02:24:28.600Z,7.40
2019-05-29T02:26:58.770Z,7.30
2019-05-29T02:29:28.894Z,7.30
2019-05-29T02:31:59.223Z,7.30
2019-05-29T02:34:29.908Z,7.30
2019-05-29T02:37:00.432Z,7.20
2019-05-29T02:39:30.578Z,7.20
2019-05-29T02:42:00.841Z,7.10
2019-05-29T02:44:30.987Z,7.10
2019-05-29T02:47:01.143Z,7.00
2019-05-29T02:49:31.284Z,6.90
2019-05-29T02:52:01.445Z,7.00
2019-05-29T02:54:32.433Z,7.00
2019-05-29T02:57:02.745Z,6.90
2019-05-29T02:59:32.900Z,6.90
2019-05-29T03:02:03.036Z,6.90
2019-05-29T03:04:33.305Z,6.80
2019-05-29T03:07:03.561Z,6.80
2019-05-29T03:09:34.883Z,6.70
2019-05-29T03:12:05.195Z,6.60
2019-05-29T03:14:35.352Z,6.60
2019-05-29T03:17:05.540Z,6.60
2019-05-29T03:19:36.806Z,6.70
2019-05-29T03:22:06.927Z,6.70
2019-05-29T03:24:37.081Z,6.60
2019-05-29T03:27:07.269Z,6.50
2019-05-29T03:29:38.480Z,6.40
2019-05-29T03:32:13.713Z,6.30
2019-05-29T03:34:46.060Z,6.40
2019-05-29T03:37:12.596Z,6.40
2019-05-29T03:39:42.740Z,6.40
2019-05-29T03:42:12.947Z,6.30
2019-05-29T03:44:44.415Z,6.30
2019-05-29T03:47:14.567Z,6.30
2019-05-29T03:49:44.741Z,6.30
2019-05-29T03:52:14.902Z,6.30
2019-05-29T03:54:45.044Z,6.40
2019-05-29T03:57:15.184Z,6.40
2019-05-29T03:59:45.379Z,6.50
2019-05-29T04:02:15.547Z,6.60
2019-05-29T04:04:45.705Z,6.50
2019-05-29T04:07:15.871Z,6.50
2019-05-29T04:09:46.029Z,6.60
2019-05-29T04:12:18.982Z,6.60
2019-05-29T04:14:48.405Z,6.70
2019-05-29T04:17:20.720Z,6.90
2019-05-29T04:19:51.393Z,7.40
2019-05-29T04:22:28.207Z,8.10
2019-05-29T04:25:00.081Z,8.70
2019-05-29T04:27:34.284Z,8.70
2019-05-29T04:30:06.281Z,8.60
2019-05-29T04:32:36.742Z,8.90
2019-05-29T04:35:07.371Z,9.30
2019-05-29T04:37:39.632Z,9.30
2019-05-29T04:40:10.339Z,9.20
2019-05-29T04:42:40.497Z,9.30
2019-05-29T04:45:10.895Z,9.50
2019-05-29T04:47:41.070Z,9.50
2019-05-29T04:50:11.309Z,9.30
2019-05-29T04:52:41.467Z,9.10
2019-05-29T04:55:15.509Z,9.20
2019-05-29T04:57:46.719Z,9.20
2019-05-29T05:00:17.044Z,9.60
2019-05-29T05:02:47.216Z,10.60
2019-05-29T05:05:19.497Z,11.70
2019-05-29T05:07:49.224Z,12.80
2019-05-29T05:10:35.537Z,14.00
2019-05-29T05:13:06.712Z,14.70
2019-05-29T05:15:37.956Z,15.30
2019-05-29T05:18:08.449Z,15.70
2019-05-29T05:20:38.623Z,15.80
2019-05-29T05:23:08.891Z,16.00
2019-05-29T05:25:40.835Z,16.20
2019-05-29T05:28:11.045Z,16.90
2019-05-29T05:30:41.212Z,16.90
2019-05-29T05:33:12.125Z,17.20
2019-05-29T05:35:42.299Z,17.20
2019-05-29T05:38:12.457Z,16.80
2019-05-29T05:40:43.275Z,15.60
2019-05-29T05:43:23.537Z,14.30
2019-05-29T05:45:45.581Z,13.20
2019-05-29T05:48:16.829Z,12.50
2019-05-29T05:50:47.125Z,12.20
2019-05-29T05:53:18.391Z,11.80
2019-05-29T05:55:48.574Z,11.30
2019-05-29T05:58:18.807Z,11.30
2019-05-29T06:00:49.140Z,11.20
2019-05-29T06:03:19.304Z,11.20
2019-05-29T06:05:49.461Z,11.20
2019-05-29T06:08:19.611Z,11.20
2019-05-29T06:10:51.342Z,11.20
2019-05-29T06:13:22.656Z,11.40
2019-05-29T06:15:52.802Z,11.40
2019-05-29T06:18:23.031Z,11.50
2019-05-29T06:20:53.188Z,11.50
2019-05-29T06:23:23.411Z,11.50
2019-05-29T06:25:53.647Z,11.50
2019-05-29T06:28:23.846Z,11.50
2019-05-29T06:30:53.983Z,11.40
2019-05-29T06:33:24.120Z,11.40
2019-05-29T06:35:54.284Z,11.60
2019-05-29T06:38:24.435Z,11.60
2019-05-29T06:40:54.637Z,11.70
2019-05-29T06:43:25.603Z,11.70
2019-05-29T06:45:56.662Z,11.80
2019-05-29T06:48:42.345Z,11.80
2019-05-29T06:50:59.964Z,11.80
2019-05-29T06:53:30.251Z,11.90
2019-05-29T06:56:01.833Z,11.90
2019-05-29T06:58:32.358Z,11.90
2019-05-29T07:01:02.552Z,11.90
2019-05-29T07:03:32.784Z,11.90
2019-05-29T07:06:03.980Z,11.90
2019-05-29T07:08:39.909Z,12.10
2019-05-29T07:11:06.173Z,12.20
2019-05-29T07:13:39.735Z,12.20
2019-05-29T07:16:08.219Z,12.40
2019-05-29T07:18:38.639Z,12.50
2019-05-29T07:21:09.015Z,12.60
2019-05-29T07:23:39.188Z,12.80
2019-05-29T07:26:09.339Z,12.80
2019-05-29T07:28:58.918Z,12.90
2019-05-29T07:31:12.511Z,13.00
2019-05-29T07:33:43.286Z,13.00
2019-05-29T07:36:13.483Z,13.00
2019-05-29T07:38:45.948Z,13.00
2019-05-29T07:41:15.543Z,13.00
2019-05-29T07:43:45.944Z,13.10
2019-05-29T07:46:16.288Z,12.90
2019-05-29T07:48:49.624Z,13.00
2019-05-29T07:51:20.414Z,13.00
2019-05-29T07:53:50.624Z,13.10
2019-05-29T07:56:23.074Z,13.30
2019-05-29T07:59:02.636Z,13.20
2019-05-29T08:01:24.781Z,13.20
2019-05-29T08:03:55.015Z,13.40
2019-05-29T08:06:25.176Z,13.40
2019-05-29T08:08:55.317Z,13.50
2019-05-29T08:11:25.524Z,13.50
2019-05-29T08:13:55.701Z,13.60
2019-05-29T08:16:25.844Z,13.60
2019-05-29T08:18:56.043Z,13.60
2019-05-29T08:21:26.272Z,13.80
2019-05-29T08:23:56.457Z,13.70
2019-05-29T08:26:26.606Z,13.80
2019-05-29T08:28:56.764Z,14.00
2019-05-29T08:31:28.455Z,14.10
2019-05-29T08:33:58.596Z,14.00
2019-05-29T08:36:28.964Z,13.90
2019-05-29T08:38:59.153Z,14.00
2019-05-29T08:41:29.300Z,14.00
2019-05-29T08:43:59.505Z,14.20
2019-05-29T08:46:33.202Z,14.50
2019-05-29T08:49:01.611Z,14.40
2019-05-29T08:51:31.796Z,14.50
2019-05-29T08:54:01.944Z,14.50
2019-05-29T08:56:32.124Z,14.60
2019-05-29T08:59:02.263Z,14.70
2019-05-29T09:01:32.439Z,14.70
2019-05-29T09:04:03.671Z,14.70
2019-05-29T09:06:33.819Z,14.70
2019-05-29T09:09:05.209Z,14.80
2019-05-29T09:11:35.348Z,15.10
2019-05-29T09:14:05.715Z,15.60
2019-05-29T09:16:35.933Z,16.20
2019-05-29T09:19:06.091Z,17.50
2019-05-29T09:21:36.236Z,19.30
2019-05-29T09:24:06.565Z,20.40
2019-05-29T09:26:36.799Z,20.90
2019-05-29T09:29:06.970Z,21.60
2019-05-29T09:31:37.107Z,22.00
2019-05-29T09:34:07.280Z,22.20
2019-05-29T09:36:37.446Z,22.00
2019-05-29T09:39:08.908Z,22.50
2019-05-29T09:41:39.061Z,22.90
2019-05-29T09:44:09.203Z,23.10
2019-05-29T09:46:39.352Z,22.80
2019-05-29T09:49:09.512Z,22.80
2019-05-29T09:51:39.674Z,22.90
2019-05-29T09:54:09.941Z,22.00
2019-05-29T09:56:40.285Z,21.90
2019-05-29T09:59:10.558Z,22.10
2019-05-29T10:01:40.740Z,22.20
2019-05-29T10:04:10.904Z,22.50
2019-05-29T10:06:41.084Z,22.70
2019-05-29T10:09:11.321Z,22.00
2019-05-29T10:11:41.571Z,22.10
2019-05-29T10:14:11.743Z,22.60
2019-05-29T10:16:41.890Z,23.90
2019-05-29T10:19:12.175Z,23.30
2019-05-29T10:21:42.406Z,23.10
2019-05-29T10:24:12.595Z,22.90
2019-05-29T10:26:42.747Z,23.00
2019-05-29T10:29:12.935Z,22.90
2019-05-29T10:31:46.805Z,23.60
2019-05-29T10:34:16.794Z,24.00
2019-05-29T10:36:50.029Z,23.70
2019-05-29T10:39:18.856Z,23.90
2019-05-29T10:41:49.033Z,23.10
2019-05-29T10:44:19.189Z,23.40
2019-05-29T10:46:51.850Z,23.30
2019-05-29T10:49:21.247Z,23.10
2019-05-29T10:52:05.480Z,23.80
2019-05-29T10:54:23.252Z,23.00
2019-05-29T10:56:54.830Z,22.70
2019-05-29T10:59:25.257Z,23.30
2019-05-29T11:01:55.589Z,23.70
2019-05-29T11:04:25.831Z,24.40
2019-05-29T11:06:56.970Z,24.80
2019-05-29T11:09:42.914Z,24.60
2019-05-29T11:11:59.165Z,23.60
2019-05-29T11:14:30.449Z,24.00
2019-05-29T11:17:00.584Z,24.00
2019-05-29T11:19:30.756Z,24.40
2019-05-29T11:22:16.225Z,24.60
2019-05-29T11:24:32.788Z,24.10
2019-05-29T11:27:02.989Z,23.80
2019-05-29T11:29:33.280Z,23.10
2019-05-29T11:32:03.468Z,23.60
2019-05-29T11:34:33.627Z,23.80
2019-05-29T11:37:03.766Z,23.70
2019-05-29T11:39:33.996Z,23.80
2019-05-29T11:42:04.724Z,24.00
2019-05-29T11:44:34.899Z,23.60
2019-05-29T11:47:05.420Z,23.40
2019-05-29T11:49:35.617Z,23.10
2019-05-29T11:52:23.296Z,23.00
2019-05-29T11:54:37.897Z,23.40
2019-05-29T11:57:08.032Z,22.80
2019-05-29T11:59:38.194Z,23.10
2019-05-29T12:02:08.549Z,23.40
2019-05-29T12:04:39.772Z,22.20
2019-05-29T12:07:10.036Z,21.70
2019-05-29T12:09:42.376Z,22.30
2019-05-29T12:12:12.257Z,22.10
2019-05-29T12:14:59.096Z,21.80
2019-05-29T12:17:14.461Z,21.90
2019-05-29T12:19:44.803Z,21.60
2019-05-29T12:22:14.993Z,21.60
2019-05-29T12:24:45.144Z,21.90
2019-05-29T12:27:15.528Z,21.80
2019-05-29T12:29:45.662Z,21.80
2019-05-29T12:32:15.944Z,21.80
2019-05-29T12:34:53.775Z,21.80
2019-05-29T12:37:18.252Z,21.60
2019-05-29T12:39:50.037Z,22.50
2019-05-29T12:42:20.225Z,22.50
2019-05-29T12:44:50.615Z,22.30
2019-05-29T12:47:20.825Z,22.00
2019-05-29T12:49:50.989Z,21.80
2019-05-29T12:52:21.209Z,21.80
2019-05-29T12:54:52.145Z,20.60
2019-05-29T12:57:23.585Z,20.20
2019-05-29T12:59:54.078Z,20.30
2019-05-29T13:02:24.338Z,20.30
2019-05-29T13:05:18.286Z,20.10
2019-05-29T13:07:26.378Z,20.80
2019-05-29T13:09:56.790Z,21.00
2019-05-29T13:12:27.014Z,20.80
2019-05-29T13:14:58.380Z,20.40
2019-05-29T13:17:28.780Z,19.90
2019-05-29T13:20:07.108Z,19.90
2019-05-29T13:22:30.951Z,19.80
2019-05-29T13:25:01.318Z,19.70
2019-05-29T13:27:31.665Z,19.60
2019-05-29T13:30:03.968Z,19.30
2019-05-29T13:32:33.682Z,19.30
2019-05-29T13:35:04.313Z,19.70
2019-05-29T13:37:34.671Z,19.50
2019-05-29T13:40:07.993Z,19.00
2019-05-29T13:42:37.301Z,19.30
2019-05-29T13:45:17.928Z,19.20
2019-05-29T13:47:40.327Z,18.70
2019-05-29T13:50:12.589Z,18.40
2019-05-29T13:52:44.271Z,19.00
2019-05-29T13:55:15.155Z,19.30
2019-05-29T13:57:46.296Z,19.30
2019-05-29T14:00:32.443Z,19.60
2019-05-29T14:02:49.062Z,20.00
2019-05-29T14:05:19.501Z,19.80
2019-05-29T14:07:49.701Z,20.00
2019-05-29T14:10:19.930Z,19.90
2019-05-29T14:12:50.247Z,20.20
2019-05-29T14:15:20.548Z,20.40
2019-05-29T14:17:50.744Z,21.00
2019-05-29T14:20:21.011Z,20.60
2019-05-29T14:22:51.207Z,20.30
2019-05-29T14:25:22.993Z,20.30
2019-05-29T14:27:53.276Z,20.30
2019-05-29T14:30:25.802Z,20.70
2019-05-29T14:32:56.426Z,21.20
2019-05-29T14:35:26.583Z,21.40
2019-05-29T14:37:56.816Z,21.20
2019-05-29T14:40:26.963Z,20.70
2019-05-29T14:42:57.149Z,19.90
2019-05-29T14:45:27.411Z,19.80
2019-05-29T14:47:57.588Z,19.90
2019-05-29T14:50:27.785Z,20.40
2019-05-29T14:52:57.968Z,20.10
2019-05-29T14:55:28.123Z,20.30
2019-05-29T14:57:58.369Z,20.40
2019-05-29T15:00:28.732Z,20.20
2019-05-29T15:02:58.896Z,20.10
2019-05-29T15:05:29.032Z,20.00
2019-05-29T15:07:59.192Z,20.10
2019-05-29T15:10:29.365Z,20.40
2019-05-29T15:12:59.693Z,20.40
2019-05-29T15:15:29.864Z,19.80
2019-05-29T15:18:00.096Z,19.60
2019-05-29T15:20:30.279Z,19.90
2019-05-29T15:23:01.580Z,20.20
2019-05-29T15:25:31.812Z,20.30
2019-05-29T15:28:01.979Z,20.50
2019-05-29T15:30:32.132Z,20.50
2019-05-29T15:33:02.390Z,20.30
2019-05-29T15:35:32.554Z,20.30
2019-05-29T15:38:02.705Z,20.30
2019-05-29T15:40:32.986Z,19.90
2019-05-29T15:43:03.176Z,19.70
2019-05-29T15:45:33.660Z,19.50
2019-05-29T15:48:03.878Z,19.50
2019-05-29T15:50:34.244Z,19.70
2019-05-29T15:53:04.405Z,19.50
2019-05-29T15:55:35.020Z,19.20
2019-05-29T15:58:07.291Z,19.10
2019-05-29T16:00:37.728Z,19.20
2019-05-29T16:03:07.922Z,19.20
2019-05-29T16:05:38.063Z,19.40
2019-05-29T16:08:08.236Z,19.50
2019-05-29T16:10:38.450Z,19.60
2019-05-29T16:13:08.739Z,19.70
2019-05-29T16:15:39.165Z,19.70
2019-05-29T16:18:19.801Z,19.70
2019-05-29T16:20:42.321Z,19.50
2019-05-29T16:23:21.660Z,19.70
2019-05-29T16:25:44.517Z,19.80
2019-05-29T16:28:15.146Z,19.80
2019-05-29T16:30:45.438Z,19.80
2019-05-29T16:33:17.070Z,19.70
2019-05-29T16:35:47.592Z,19.60
2019-05-29T16:38:17.812Z,19.70
2019-05-29T16:40:48.070Z,19.80
2019-05-29T16:43:18.220Z,19.80
2019-05-29T16:45:48.810Z,19.90
2019-05-29T16:48:20.669Z,20.00
2019-05-29T16:50:52.041Z,20.10
2019-05-29T16:53:23.380Z,20.00
2019-05-29T16:55:54.638Z,19.90
2019-05-29T16:58:26.317Z,19.80
2019-05-29T17:00:56.505Z,19.80
2019-05-29T17:03:26.674Z,19.80
2019-05-29T17:05:56.877Z,19.80
2019-05-29T17:08:28.234Z,19.80
2019-05-29T17:10:58.421Z,19.80
2019-05-29T17:13:28.596Z,19.80
2019-05-29T17:15:58.903Z,19.80
2019-05-29T17:18:29.112Z,19.80
2019-05-29T17:20:59.277Z,19.80
2019-05-29T17:23:29.463Z,19.60
2019-05-29T17:26:10.246Z,19.50
2019-05-29T17:28:32.687Z,19.40
2019-05-29T17:31:02.952Z,19.30
2019-05-29T17:33:33.179Z,19.20
2019-05-29T17:36:03.357Z,19.00
2019-05-29T17:38:33.665Z,19.00
2019-05-29T17:41:04.993Z,19.10
2019-05-29T17:43:35.240Z,19.20
2019-05-29T17:46:05.631Z,19.20
2019-05-29T17:48:35.852Z,19.20
2019-05-29T17:51:06.100Z,19.10
2019-05-29T17:53:36.603Z,19.20
2019-05-29T17:56:06.956Z,19.10
2019-05-29T17:58:37.211Z,19.00
2019-05-29T18:01:08.591Z,19.10
2019-05-29T18:03:38.812Z,19.00
2019-05-29T18:06:09.093Z,19.00
2019-05-29T18:08:40.376Z,19.00
2019-05-29T18:11:10.645Z,19.00
2019-05-29T18:13:40.976Z,19.00
2019-05-29T18:16:13.012Z,18.90
2019-05-29T18:18:43.268Z,18.90
2019-05-29T18:21:13.439Z,18.90
2019-05-29T18:23:43.621Z,18.80
2019-05-29T18:26:13.796Z,18.70
2019-05-29T18:28:43.987Z,18.70
2019-05-29T18:31:14.183Z,18.70
2019-05-29T18:33:44.373Z,18.70
2019-05-29T18:36:14.601Z,18.60
2019-05-29T18:38:44.779Z,18.50
2019-05-29T18:41:14.977Z,18.50
2019-05-29T18:43:46.216Z,18.40
2019-05-29T18:46:16.502Z,18.40
2019-05-29T18:48:46.788Z,18.30
2019-05-29T18:51:17.064Z,18.20
2019-05-29T18:53:47.472Z,18.10
2019-05-29T18:56:18.102Z,18.00
2019-05-29T18:58:48.296Z,17.80
2019-05-29T19:01:18.535Z,17.80
2019-05-29T19:03:48.922Z,17.70
2019-05-29T19:06:19.121Z,17.60
2019-05-29T19:08:49.508Z,17.50
2019-05-29T19:11:19.935Z,17.40
2019-05-29T19:13:50.632Z,17.20
2019-05-29T19:16:21.838Z,16.90
2019-05-29T19:18:54.322Z,16.80
2019-05-29T19:21:24.914Z,16.70
2019-05-29T19:23:55.132Z,16.60
2019-05-29T19:26:26.704Z,16.60
2019-05-29T19:28:56.996Z,16.70
2019-05-29T19:31:29.122Z,16.50
2019-05-29T19:33:59.424Z,16.30
2019-05-29T19:36:29.943Z,16.10
2019-05-29T19:39:00.534Z,16.00
2019-05-29T19:41:31.986Z,15.90
2019-05-29T19:44:02.269Z,15.70
2019-05-29T19:46:41.965Z,15.60
2019-05-29T19:49:04.465Z,15.60
2019-05-29T19:51:35.809Z,15.40
2019-05-29T19:54:07.140Z,15.30
2019-05-29T19:56:37.345Z,15.30
2019-05-29T19:59:07.603Z,15.10
2019-05-29T20:01:40.492Z,15.10
2019-05-29T20:04:09.809Z,14.90
2019-05-29T20:06:40.019Z,14.80
2019-05-29T20:09:12.844Z,14.70
2019-05-29T20:11:43.059Z,14.80
2019-05-29T20:14:13.248Z,14.80
2019-05-29T20:16:43.446Z,14.90
2019-05-29T20:19:13.659Z,14.90
2019-05-29T20:21:43.839Z,14.90
2019-05-29T20:24:15.458Z,14.90
2019-05-29T20:26:45.659Z,14.80
2019-05-29T20:29:15.947Z,14.80
2019-05-29T20:31:46.233Z,14.70
2019-05-29T20:34:16.605Z,14.70
2019-05-29T20:36:46.776Z,14.60
2019-05-29T20:39:17.036Z,14.70
2019-05-29T20:41:47.333Z,14.60
2019-05-29T20:44:17.583Z,14.60
2019-05-29T20:46:47.739Z,14.60
2019-05-29T20:49:18.164Z,14.70
2019-05-29T20:51:48.320Z,14.90
2019-05-29T20:54:20.284Z,15.00
2019-05-29T20:56:50.460Z,14.80
2019-05-29T20:59:20.658Z,14.60
2019-05-29T21:01:50.825Z,14.60
2019-05-29T21:04:21.492Z,14.70
2019-05-29T21:06:51.667Z,14.90
2019-05-29T21:09:21.892Z,15.00
2019-05-29T21:11:52.236Z,15.00
2019-05-29T21:14:24.886Z,15.10
2019-05-29T21:16:55.085Z,15.00
2019-05-29T21:19:25.423Z,15.00
2019-05-29T21:21:55.595Z,15.20
2019-05-29T21:24:25.833Z,15.20
2019-05-29T21:26:56.038Z,15.30
2019-05-29T21:29:26.284Z,15.30
2019-05-29T21:31:56.600Z,15.40
2019-05-29T21:34:26.811Z,15.40
2019-05-29T21:36:57.008Z,15.50
2019-05-29T21:39:27.208Z,15.50
2019-05-29T21:41:57.392Z,15.50
2019-05-29T21:44:27.695Z,15.50
2019-05-29T21:46:57.850Z,15.40
2019-05-29T21:49:31.348Z,15.30
2019-05-29T21:52:00.140Z,15.30
2019-05-29T21:54:30.410Z,15.30
2019-05-29T21:57:00.586Z,15.20
2019-05-29T21:59:30.917Z,15.10
2019-05-29T22:02:01.288Z,15.20
2019-05-29T22:04:31.571Z,15.20
2019-05-29T22:07:01.739Z,15.20
2019-05-29T22:09:32.037Z,15.20
2019-05-29T22:12:02.256Z,15.20
2019-05-29T22:14:32.663Z,15.20
2019-05-29T22:17:02.888Z,15.20
2019-05-29T22:19:34.271Z,15.20
2019-05-29T22:22:05.564Z,15.20
2019-05-29T22:24:35.942Z,15.30
2019-05-29T22:27:06.228Z,15.20
2019-05-29T22:29:36.379Z,15.30
2019-05-29T22:32:06.949Z,15.30
2019-05-29T22:34:37.088Z,15.30
2019-05-29T22:37:07.253Z,15.30
2019-05-29T22:39:37.444Z,15.30
2019-05-29T22:42:07.608Z,15.30
2019-05-29T22:44:37.853Z,15.20
2019-05-29T22:47:07.999Z,15.30
2019-05-29T22:49:38.156Z,15.20
2019-05-29T22:52:08.304Z,15.30
2019-05-29T22:54:38.441Z,15.30
2019-05-29T22:57:08.607Z,15.30
2019-05-29T22:59:38.771Z,15.20
2019-05-29T23:02:08.953Z,15.20
2019-05-29T23:04:39.115Z,15.20
2019-05-29T23:07:09.294Z,15.20
2019-05-29T23:09:39.507Z,15.20
2019-05-29T23:12:09.724Z,15.40
2019-05-29T23:14:39.907Z,15.40
2019-05-29T23:17:10.555Z,15.40
2019-05-29T23:19:40.725Z,15.40
2019-05-29T23:22:10.980Z,15.40
2019-05-29T23:24:41.348Z,15.30
2019-05-29T23:27:11.488Z,15.40
2019-05-29T23:29:49.065Z,15.40
2019-05-29T23:32:13.524Z,15.30
2019-05-29T23:34:43.687Z,15.30
2019-05-29T23:37:14.033Z,15.30
2019-05-29T23:39:44.256Z,15.30
2019-05-29T23:42:14.427Z,15.30
2019-05-29T23:44:44.639Z,15.30
2019-05-29T23:47:14.786Z,15.30
2019-05-29T23:49:44.973Z,15.30
2019-05-29T23:52:15.127Z,15.30
2019-05-29T23:54:45.275Z,15.20
2019-05-29T23:57:15.451Z,15.20
2019-05-29T23:59:45.599Z,15.20
